sensor_id;sensor_type;location;lat;lon;timestamp;P1;durP1;ratioP1;P2;durP2;ratioP2
50547;SDS011;38013;48.810;8.818;2023-05-10T00:00:54;0.13;;;0.10;;
50547;SDS011;38013;48.810;8.818;2023-05-10T00:03:21;0.70;;;0.10;;
50547;SDS011;38013;48.810;8.818;2023-05-10T00:05:48;0.28;;;0.15;;
50547;SDS011;38013;48.810;8.818;2023-05-10T00:08:15;0.60;;;0.10;;
50547;SDS011;38013;48.810;8.818;2023-05-10T00:10:42;0.45;;;0.20;;
50547;SDS011;38013;48.810;8.818;2023-05-10T00:13:09;2.10;;;0.15;;
50547;SDS011;38013;48.810;8.818;2023-05-10T00:15:36;5.07;;;0.20;;
50547;SDS011;38013;48.810;8.818;2023-05-10T00:18:03;3.13;;;0.17;;
50547;SDS011;38013;48.810;8.818;2023-05-10T00:20:29;0.60;;;0.38;;
50547;SDS011;38013;48.810;8.818;2023-05-10T00:22:56;0.10;;;0.10;;
50547;SDS011;38013;48.810;8.818;2023-05-10T00:25:23;0.25;;;0.17;;
50547;SDS011;38013;48.810;8.818;2023-05-10T00:27:50;0.10;;;0.10;;
50547;SDS011;38013;48.810;8.818;2023-05-10T00:30:17;2.30;;;0.20;;
50547;SDS011;38013;48.810;8.818;2023-05-10T00:32:44;0.20;;;0.20;;
50547;SDS011;38013;48.810;8.818;2023-05-10T00:35:12;0.90;;;0.20;;
50547;SDS011;38013;48.810;8.818;2023-05-10T00:37:39;0.20;;;0.20;;
50547;SDS011;38013;48.810;8.818;2023-05-10T00:40:06;5.20;;;0.60;;
50547;SDS011;38013;48.810;8.818;2023-05-10T00:42:33;0.10;;;0.10;;
50547;SDS011;38013;48.810;8.818;2023-05-10T00:45:00;0.68;;;0.30;;
50547;SDS011;38013;48.810;8.818;2023-05-10T00:47:27;0.50;;;0.30;;
50547;SDS011;38013;48.810;8.818;2023-05-10T00:49:55;0.52;;;0.20;;
50547;SDS011;38013;48.810;8.818;2023-05-10T00:52:22;0.50;;;0.30;;
50547;SDS011;38013;48.810;8.818;2023-05-10T00:54:50;0.22;;;0.20;;
50547;SDS011;38013;48.810;8.818;2023-05-10T00:57:18;0.28;;;0.25;;
50547;SDS011;38013;48.810;8.818;2023-05-10T00:59:45;0.30;;;0.30;;
50547;SDS011;38013;48.810;8.818;2023-05-10T01:02:12;0.43;;;0.30;;
50547;SDS011;38013;48.810;8.818;2023-05-10T01:04:39;0.20;;;0.20;;
50547;SDS011;38013;48.810;8.818;2023-05-10T01:07:06;2.45;;;0.20;;
50547;SDS011;38013;48.810;8.818;2023-05-10T01:09:33;2.08;;;0.20;;
50547;SDS011;38013;48.810;8.818;2023-05-10T01:12:01;1.05;;;0.20;;
50547;SDS011;38013;48.810;8.818;2023-05-10T01:14:29;0.43;;;0.20;;
50547;SDS011;38013;48.810;8.818;2023-05-10T01:16:56;0.30;;;0.30;;
50547;SDS011;38013;48.810;8.818;2023-05-10T01:19:25;0.90;;;0.20;;
50547;SDS011;38013;48.810;8.818;2023-05-10T01:41:52;1.30;;;0.40;;
50547;SDS011;38013;48.810;8.818;2023-05-10T01:44:44;0.30;;;0.30;;
50547;SDS011;38013;48.810;8.818;2023-05-10T01:47:30;0.65;;;0.30;;
50547;SDS011;38013;48.810;8.818;2023-05-10T01:50:06;0.30;;;0.30;;
50547;SDS011;38013;48.810;8.818;2023-05-10T01:52:47;0.90;;;0.40;;
50547;SDS011;38013;48.810;8.818;2023-05-10T01:55:21;0.40;;;0.40;;
50547;SDS011;38013;48.810;8.818;2023-05-10T01:57:54;1.25;;;0.40;;
50547;SDS011;38013;48.810;8.818;2023-05-10T02:00:37;0.60;;;0.40;;
50547;SDS011;38013;48.810;8.818;2023-05-10T02:03:09;1.05;;;0.30;;
50547;SDS011;38013;48.810;8.818;2023-05-10T02:05:38;1.30;;;0.40;;
50547;SDS011;38013;48.810;8.818;2023-05-10T02:08:06;1.63;;;0.45;;
50547;SDS011;38013;48.810;8.818;2023-05-10T02:13:04;1.10;;;0.40;;
50547;SDS011;38013;48.810;8.818;2023-05-10T02:15:32;1.13;;;0.50;;
50547;SDS011;38013;48.810;8.818;2023-05-10T02:18:00;1.92;;;0.55;;
50547;SDS011;38013;48.810;8.818;2023-05-10T02:20:29;1.80;;;0.50;;
50547;SDS011;38013;48.810;8.818;2023-05-10T02:22:58;1.93;;;0.50;;
50547;SDS011;38013;48.810;8.818;2023-05-10T02:25:27;0.43;;;0.40;;
50547;SDS011;38013;48.810;8.818;2023-05-10T02:27:56;0.93;;;0.52;;
50547;SDS011;38013;48.810;8.818;2023-05-10T02:30:23;0.65;;;0.30;;
50547;SDS011;38013;48.810;8.818;2023-05-10T02:32:51;0.52;;;0.40;;
50547;SDS011;38013;48.810;8.818;2023-05-10T02:35:19;0.50;;;0.40;;
50547;SDS011;38013;48.810;8.818;2023-05-10T02:37:48;0.85;;;0.50;;
50547;SDS011;38013;48.810;8.818;2023-05-10T02:40:16;0.88;;;0.47;;
50547;SDS011;38013;48.810;8.818;2023-05-10T02:42:45;0.52;;;0.35;;
50547;SDS011;38013;48.810;8.818;2023-05-10T02:45:17;2.58;;;0.40;;
50547;SDS011;38013;48.810;8.818;2023-05-10T02:47:47;0.52;;;0.40;;
50547;SDS011;38013;48.810;8.818;2023-05-10T02:50:14;1.13;;;0.50;;
50547;SDS011;38013;48.810;8.818;2023-05-10T02:52:44;0.70;;;0.45;;
50547;SDS011;38013;48.810;8.818;2023-05-10T02:55:14;1.95;;;0.50;;
50547;SDS011;38013;48.810;8.818;2023-05-10T02:57:45;2.78;;;0.50;;
50547;SDS011;38013;48.810;8.818;2023-05-10T03:00:18;4.15;;;0.80;;
50547;SDS011;38013;48.810;8.818;2023-05-10T03:02:45;2.25;;;0.60;;
50547;SDS011;38013;48.810;8.818;2023-05-10T03:05:12;1.88;;;0.40;;
50547;SDS011;38013;48.810;8.818;2023-05-10T03:07:39;1.05;;;0.52;;
50547;SDS011;38013;48.810;8.818;2023-05-10T03:10:06;0.90;;;0.50;;
50547;SDS011;38013;48.810;8.818;2023-05-10T03:12:56;0.73;;;0.50;;
50547;SDS011;38013;48.810;8.818;2023-05-10T03:18:28;0.90;;;0.60;;
50547;SDS011;38013;48.810;8.818;2023-05-10T03:21:04;0.95;;;0.60;;
50547;SDS011;38013;48.810;8.818;2023-05-10T03:23:43;0.90;;;0.52;;
50547;SDS011;38013;48.810;8.818;2023-05-10T03:26:15;3.50;;;0.65;;
50547;SDS011;38013;48.810;8.818;2023-05-10T03:28:48;0.70;;;0.50;;
50547;SDS011;38013;48.810;8.818;2023-05-10T03:31:17;1.65;;;0.50;;
50547;SDS011;38013;48.810;8.818;2023-05-10T03:33:47;2.92;;;0.63;;
50547;SDS011;38013;48.810;8.818;2023-05-10T03:36:25;0.75;;;0.50;;
50547;SDS011;38013;48.810;8.818;2023-05-10T03:38:52;0.88;;;0.60;;
50547;SDS011;38013;48.810;8.818;2023-05-10T03:41:19;1.00;;;0.60;;
50547;SDS011;38013;48.810;8.818;2023-05-10T03:43:47;1.73;;;0.85;;
50547;SDS011;38013;48.810;8.818;2023-05-10T03:46:13;0.80;;;0.57;;
50547;SDS011;38013;48.810;8.818;2023-05-10T03:48:41;3.67;;;0.70;;
50547;SDS011;38013;48.810;8.818;2023-05-10T03:51:07;2.15;;;0.50;;
50547;SDS011;38013;48.810;8.818;2023-05-10T03:53:34;1.10;;;0.60;;
50547;SDS011;38013;48.810;8.818;2023-05-10T03:56:01;1.02;;;0.60;;
50547;SDS011;38013;48.810;8.818;2023-05-10T03:58:28;0.70;;;0.50;;
50547;SDS011;38013;48.810;8.818;2023-05-10T04:00:55;0.82;;;0.50;;
50547;SDS011;38013;48.810;8.818;2023-05-10T04:03:22;1.90;;;0.60;;
50547;SDS011;38013;48.810;8.818;2023-05-10T04:05:52;1.95;;;0.60;;
50547;SDS011;38013;48.810;8.818;2023-05-10T04:08:28;2.63;;;0.60;;
50547;SDS011;38013;48.810;8.818;2023-05-10T04:11:08;0.88;;;0.60;;
50547;SDS011;38013;48.810;8.818;2023-05-10T04:13:36;0.50;;;0.50;;
50547;SDS011;38013;48.810;8.818;2023-05-10T04:16:04;0.70;;;0.50;;
50547;SDS011;38013;48.810;8.818;2023-05-10T04:18:31;1.08;;;0.57;;
50547;SDS011;38013;48.810;8.818;2023-05-10T04:20:58;0.40;;;0.40;;
50547;SDS011;38013;48.810;8.818;2023-05-10T04:23:25;2.25;;;0.68;;
50547;SDS011;38013;48.810;8.818;2023-05-10T04:25:58;1.75;;;0.75;;
50547;SDS011;38013;48.810;8.818;2023-05-10T04:28:26;0.77;;;0.50;;
50547;SDS011;38013;48.810;8.818;2023-05-10T04:31:00;1.73;;;0.50;;
50547;SDS011;38013;48.810;8.818;2023-05-10T04:33:28;7.10;;;0.80;;
50547;SDS011;38013;48.810;8.818;2023-05-10T04:35:56;1.48;;;0.65;;
50547;SDS011;38013;48.810;8.818;2023-05-10T04:38:23;1.73;;;0.50;;
50547;SDS011;38013;48.810;8.818;2023-05-10T04:40:50;1.48;;;0.60;;
50547;SDS011;38013;48.810;8.818;2023-05-10T04:43:17;1.13;;;0.60;;
50547;SDS011;38013;48.810;8.818;2023-05-10T04:45:44;0.85;;;0.60;;
50547;SDS011;38013;48.810;8.818;2023-05-10T04:48:11;1.77;;;0.50;;
50547;SDS011;38013;48.810;8.818;2023-05-10T04:50:39;4.60;;;0.80;;
50547;SDS011;38013;48.810;8.818;2023-05-10T04:53:06;0.93;;;0.40;;
50547;SDS011;38013;48.810;8.818;2023-05-10T04:55:33;1.30;;;0.60;;
50547;SDS011;38013;48.810;8.818;2023-05-10T04:58:00;4.10;;;0.90;;
50547;SDS011;38013;48.810;8.818;2023-05-10T05:00:26;1.15;;;0.70;;
50547;SDS011;38013;48.810;8.818;2023-05-10T05:02:53;0.85;;;0.52;;
50547;SDS011;38013;48.810;8.818;2023-05-10T05:05:20;2.78;;;0.60;;
50547;SDS011;38013;48.810;8.818;2023-05-10T05:07:47;1.95;;;0.70;;
50547;SDS011;38013;48.810;8.818;2023-05-10T05:10:14;1.30;;;0.70;;
50547;SDS011;38013;48.810;8.818;2023-05-10T05:12:41;1.13;;;0.80;;
50547;SDS011;38013;48.810;8.818;2023-05-10T05:15:09;1.23;;;0.73;;
50547;SDS011;38013;48.810;8.818;2023-05-10T05:17:36;1.30;;;0.50;;
50547;SDS011;38013;48.810;8.818;2023-05-10T05:20:03;2.08;;;0.80;;
50547;SDS011;38013;48.810;8.818;2023-05-10T05:22:31;2.15;;;0.73;;
50547;SDS011;38013;48.810;8.818;2023-05-10T05:24:58;2.13;;;0.60;;
50547;SDS011;38013;48.810;8.818;2023-05-10T05:27:25;1.10;;;0.73;;
50547;SDS011;38013;48.810;8.818;2023-05-10T05:29:53;2.30;;;0.88;;
50547;SDS011;38013;48.810;8.818;2023-05-10T05:32:22;1.23;;;0.50;;
50547;SDS011;38013;48.810;8.818;2023-05-10T05:34:49;1.83;;;0.70;;
50547;SDS011;38013;48.810;8.818;2023-05-10T05:37:17;1.88;;;0.80;;
50547;SDS011;38013;48.810;8.818;2023-05-10T05:39:45;1.50;;;0.70;;
50547;SDS011;38013;48.810;8.818;2023-05-10T05:42:12;0.85;;;0.60;;
50547;SDS011;38013;48.810;8.818;2023-05-10T05:44:40;0.98;;;0.60;;
50547;SDS011;38013;48.810;8.818;2023-05-10T05:47:07;1.70;;;0.60;;
50547;SDS011;38013;48.810;8.818;2023-05-10T05:49:34;1.55;;;0.70;;
50547;SDS011;38013;48.810;8.818;2023-05-10T05:52:02;1.40;;;0.60;;
50547;SDS011;38013;48.810;8.818;2023-05-10T05:54:30;1.63;;;0.70;;
50547;SDS011;38013;48.810;8.818;2023-05-10T05:56:58;1.50;;;0.80;;
50547;SDS011;38013;48.810;8.818;2023-05-10T05:59:26;1.73;;;0.90;;
50547;SDS011;38013;48.810;8.818;2023-05-10T06:01:54;1.85;;;0.65;;
50547;SDS011;38013;48.810;8.818;2023-05-10T06:04:21;3.60;;;0.88;;
50547;SDS011;38013;48.810;8.818;2023-05-10T06:06:48;1.00;;;0.60;;
50547;SDS011;38013;48.810;8.818;2023-05-10T06:09:14;1.65;;;0.73;;
50547;SDS011;38013;48.810;8.818;2023-05-10T06:11:42;1.65;;;0.70;;
50547;SDS011;38013;48.810;8.818;2023-05-10T06:14:08;2.33;;;0.80;;
50547;SDS011;38013;48.810;8.818;2023-05-10T06:16:36;3.10;;;0.70;;
50547;SDS011;38013;48.810;8.818;2023-05-10T06:19:03;2.92;;;1.23;;
50547;SDS011;38013;48.810;8.818;2023-05-10T06:21:30;2.03;;;0.85;;
50547;SDS011;38013;48.810;8.818;2023-05-10T06:23:57;2.53;;;0.90;;
50547;SDS011;38013;48.810;8.818;2023-05-10T06:26:24;2.20;;;0.80;;
50547;SDS011;38013;48.810;8.818;2023-05-10T06:28:51;1.90;;;0.80;;
50547;SDS011;38013;48.810;8.818;2023-05-10T06:31:18;1.40;;;0.60;;
50547;SDS011;38013;48.810;8.818;2023-05-10T06:33:45;1.52;;;0.75;;
50547;SDS011;38013;48.810;8.818;2023-05-10T06:36:11;1.58;;;0.88;;
50547;SDS011;38013;48.810;8.818;2023-05-10T06:38:39;3.03;;;0.88;;
50547;SDS011;38013;48.810;8.818;2023-05-10T06:41:06;2.45;;;0.85;;
50547;SDS011;38013;48.810;8.818;2023-05-10T06:43:33;4.80;;;0.80;;
50547;SDS011;38013;48.810;8.818;2023-05-10T06:46:00;1.48;;;0.70;;
50547;SDS011;38013;48.810;8.818;2023-05-10T06:48:27;2.42;;;0.80;;
50547;SDS011;38013;48.810;8.818;2023-05-10T06:50:54;1.25;;;0.75;;
50547;SDS011;38013;48.810;8.818;2023-05-10T06:53:21;1.55;;;0.65;;
50547;SDS011;38013;48.810;8.818;2023-05-10T06:55:50;0.73;;;0.57;;
50547;SDS011;38013;48.810;8.818;2023-05-10T06:58:17;3.17;;;0.73;;
50547;SDS011;38013;48.810;8.818;2023-05-10T07:00:44;1.42;;;0.60;;
50547;SDS011;38013;48.810;8.818;2023-05-10T07:03:11;2.85;;;0.70;;
50547;SDS011;38013;48.810;8.818;2023-05-10T07:05:38;5.38;;;0.60;;
50547;SDS011;38013;48.810;8.818;2023-05-10T07:08:05;1.95;;;0.60;;
50547;SDS011;38013;48.810;8.818;2023-05-10T07:10:32;0.63;;;0.50;;
50547;SDS011;38013;48.810;8.818;2023-05-10T07:12:59;1.35;;;0.40;;
50547;SDS011;38013;48.810;8.818;2023-05-10T07:15:27;1.27;;;0.60;;
50547;SDS011;38013;48.810;8.818;2023-05-10T07:17:54;1.83;;;0.60;;
50547;SDS011;38013;48.810;8.818;2023-05-10T07:20:21;2.42;;;0.50;;
50547;SDS011;38013;48.810;8.818;2023-05-10T07:22:48;0.50;;;0.35;;
50547;SDS011;38013;48.810;8.818;2023-05-10T07:25:15;2.08;;;0.50;;
50547;SDS011;38013;48.810;8.818;2023-05-10T07:27:42;0.95;;;0.40;;
50547;SDS011;38013;48.810;8.818;2023-05-10T07:30:09;1.70;;;0.47;;
50547;SDS011;38013;48.810;8.818;2023-05-10T07:32:37;0.85;;;0.38;;
50547;SDS011;38013;48.810;8.818;2023-05-10T07:35:05;1.33;;;0.40;;
50547;SDS011;38013;48.810;8.818;2023-05-10T07:37:33;2.72;;;0.50;;
50547;SDS011;38013;48.810;8.818;2023-05-10T07:39:59;3.47;;;0.50;;
50547;SDS011;38013;48.810;8.818;2023-05-10T07:42:26;1.23;;;0.38;;
50547;SDS011;38013;48.810;8.818;2023-05-10T07:44:53;1.58;;;0.82;;
50547;SDS011;38013;48.810;8.818;2023-05-10T07:47:20;0.93;;;0.40;;
50547;SDS011;38013;48.810;8.818;2023-05-10T07:49:47;1.58;;;0.50;;
50547;SDS011;38013;48.810;8.818;2023-05-10T07:52:14;1.42;;;0.60;;
50547;SDS011;38013;48.810;8.818;2023-05-10T07:54:41;7.50;;;0.50;;
50547;SDS011;38013;48.810;8.818;2023-05-10T07:57:08;2.08;;;0.40;;
50547;SDS011;38013;48.810;8.818;2023-05-10T07:59:35;1.38;;;0.32;;
50547;SDS011;38013;48.810;8.818;2023-05-10T08:02:02;0.85;;;0.40;;
50547;SDS011;38013;48.810;8.818;2023-05-10T08:04:29;2.50;;;0.50;;
50547;SDS011;38013;48.810;8.818;2023-05-10T08:06:56;1.15;;;0.30;;
50547;SDS011;38013;48.810;8.818;2023-05-10T08:09:23;0.20;;;0.20;;
50547;SDS011;38013;48.810;8.818;2023-05-10T08:11:50;0.88;;;0.30;;
50547;SDS011;38013;48.810;8.818;2023-05-10T08:14:17;0.22;;;0.20;;
50547;SDS011;38013;48.810;8.818;2023-05-10T08:16:44;0.98;;;0.40;;
50547;SDS011;38013;48.810;8.818;2023-05-10T08:19:11;1.65;;;0.28;;
50547;SDS011;38013;48.810;8.818;2023-05-10T08:21:38;0.73;;;0.30;;
50547;SDS011;38013;48.810;8.818;2023-05-10T08:24:06;2.65;;;0.30;;
50547;SDS011;38013;48.810;8.818;2023-05-10T08:26:33;1.55;;;0.32;;
50547;SDS011;38013;48.810;8.818;2023-05-10T08:29:00;0.30;;;0.20;;
50547;SDS011;38013;48.810;8.818;2023-05-10T08:31:27;1.50;;;0.45;;
50547;SDS011;38013;48.810;8.818;2023-05-10T08:33:54;1.10;;;0.38;;
50547;SDS011;38013;48.810;8.818;2023-05-10T08:36:21;0.82;;;0.38;;
50547;SDS011;38013;48.810;8.818;2023-05-10T08:38:50;1.00;;;0.30;;
50547;SDS011;38013;48.810;8.818;2023-05-10T08:41:21;1.63;;;0.40;;
50547;SDS011;38013;48.810;8.818;2023-05-10T08:43:51;1.10;;;0.28;;
50547;SDS011;38013;48.810;8.818;2023-05-10T08:46:20;0.55;;;0.22;;
50547;SDS011;38013;48.810;8.818;2023-05-10T08:48:49;1.55;;;0.60;;
50547;SDS011;38013;48.810;8.818;2023-05-10T08:51:18;1.23;;;0.38;;
50547;SDS011;38013;48.810;8.818;2023-05-10T08:53:50;0.40;;;0.38;;
50547;SDS011;38013;48.810;8.818;2023-05-10T08:56:17;2.47;;;0.40;;
50547;SDS011;38013;48.810;8.818;2023-05-10T08:58:45;0.40;;;0.30;;
50547;SDS011;38013;48.810;8.818;2023-05-10T09:01:14;1.02;;;0.30;;
50547;SDS011;38013;48.810;8.818;2023-05-10T09:03:45;0.95;;;0.30;;
50547;SDS011;38013;48.810;8.818;2023-05-10T09:06:13;0.70;;;0.30;;
50547;SDS011;38013;48.810;8.818;2023-05-10T09:08:41;4.10;;;0.40;;
50547;SDS011;38013;48.810;8.818;2023-05-10T09:11:09;0.68;;;0.30;;
50547;SDS011;38013;48.810;8.818;2023-05-10T09:13:37;4.72;;;0.40;;
50547;SDS011;38013;48.810;8.818;2023-05-10T09:16:04;0.75;;;0.40;;
50547;SDS011;38013;48.810;8.818;2023-05-10T09:18:46;2.67;;;0.55;;
50547;SDS011;38013;48.810;8.818;2023-05-10T09:21:13;3.20;;;0.30;;
50547;SDS011;38013;48.810;8.818;2023-05-10T09:23:44;0.50;;;0.25;;
50547;SDS011;38013;48.810;8.818;2023-05-10T09:26:14;0.22;;;0.20;;
50547;SDS011;38013;48.810;8.818;2023-05-10T09:28:59;1.17;;;0.32;;
50547;SDS011;38013;48.810;8.818;2023-05-10T09:34:29;4.60;;;0.40;;
50547;SDS011;38013;48.810;8.818;2023-05-10T09:36:59;0.47;;;0.30;;
50547;SDS011;38013;48.810;8.818;2023-05-10T09:39:32;1.08;;;0.30;;
50547;SDS011;38013;48.810;8.818;2023-05-10T09:42:02;0.20;;;0.20;;
50547;SDS011;38013;48.810;8.818;2023-05-10T09:44:36;0.57;;;0.30;;
50547;SDS011;38013;48.810;8.818;2023-05-10T09:47:04;1.15;;;0.40;;
50547;SDS011;38013;48.810;8.818;2023-05-10T09:49:31;0.43;;;0.30;;
50547;SDS011;38013;48.810;8.818;2023-05-10T09:51:59;0.90;;;0.30;;
50547;SDS011;38013;48.810;8.818;2023-05-10T09:54:31;1.80;;;0.40;;
50547;SDS011;38013;48.810;8.818;2023-05-10T09:56:59;2.67;;;0.40;;
50547;SDS011;38013;48.810;8.818;2023-05-10T09:59:27;1.70;;;0.40;;
50547;SDS011;38013;48.810;8.818;2023-05-10T10:01:59;1.27;;;0.40;;
50547;SDS011;38013;48.810;8.818;2023-05-10T10:04:48;2.13;;;0.43;;
50547;SDS011;38013;48.810;8.818;2023-05-10T10:07:17;1.33;;;0.30;;
50547;SDS011;38013;48.810;8.818;2023-05-10T10:09:50;2.17;;;0.47;;
50547;SDS011;38013;48.810;8.818;2023-05-10T10:12:18;2.17;;;0.40;;
50547;SDS011;38013;48.810;8.818;2023-05-10T10:14:46;3.40;;;0.50;;
50547;SDS011;38013;48.810;8.818;2023-05-10T10:17:15;0.85;;;0.40;;
50547;SDS011;38013;48.810;8.818;2023-05-10T10:19:43;3.30;;;0.40;;
50547;SDS011;38013;48.810;8.818;2023-05-10T10:22:11;0.57;;;0.30;;
50547;SDS011;38013;48.810;8.818;2023-05-10T10:24:38;1.00;;;0.40;;
50547;SDS011;38013;48.810;8.818;2023-05-10T10:27:15;1.38;;;0.73;;
50547;SDS011;38013;48.810;8.818;2023-05-10T10:32:49;2.10;;;0.40;;
50547;SDS011;38013;48.810;8.818;2023-05-10T10:35:53;1.48;;;0.30;;
50547;SDS011;38013;48.810;8.818;2023-05-10T10:38:21;0.63;;;0.40;;
50547;SDS011;38013;48.810;8.818;2023-05-10T10:40:48;0.60;;;0.40;;
50547;SDS011;38013;48.810;8.818;2023-05-10T10:43:29;2.58;;;0.40;;
50547;SDS011;38013;48.810;8.818;2023-05-10T10:46:15;1.05;;;0.32;;
50547;SDS011;38013;48.810;8.818;2023-05-10T10:48:48;1.05;;;0.40;;
50547;SDS011;38013;48.810;8.818;2023-05-10T10:51:38;1.25;;;0.60;;
50547;SDS011;38013;48.810;8.818;2023-05-10T10:54:09;1.35;;;0.50;;
50547;SDS011;38013;48.810;8.818;2023-05-10T10:56:37;1.80;;;0.60;;
50547;SDS011;38013;48.810;8.818;2023-05-10T10:59:04;3.45;;;0.65;;
50547;SDS011;38013;48.810;8.818;2023-05-10T11:01:34;2.15;;;0.50;;
50547;SDS011;38013;48.810;8.818;2023-05-10T11:09:06;1.75;;;0.50;;
50547;SDS011;38013;48.810;8.818;2023-05-10T11:11:35;1.88;;;0.50;;
50547;SDS011;38013;48.810;8.818;2023-05-10T11:14:14;3.05;;;0.50;;
50547;SDS011;38013;48.810;8.818;2023-05-10T11:16:48;4.38;;;0.50;;
50547;SDS011;38013;48.810;8.818;2023-05-10T11:19:16;2.58;;;0.60;;
50547;SDS011;38013;48.810;8.818;2023-05-10T11:21:48;1.13;;;0.43;;
50547;SDS011;38013;48.810;8.818;2023-05-10T11:24:39;1.15;;;0.50;;
50547;SDS011;38013;48.810;8.818;2023-05-10T11:27:06;2.20;;;0.60;;
50547;SDS011;38013;48.810;8.818;2023-05-10T11:29:33;1.38;;;0.50;;
50547;SDS011;38013;48.810;8.818;2023-05-10T11:32:00;1.70;;;0.60;;
50547;SDS011;38013;48.810;8.818;2023-05-10T11:34:30;5.90;;;1.02;;
50547;SDS011;38013;48.810;8.818;2023-05-10T11:37:00;4.50;;;0.95;;
50547;SDS011;38013;48.810;8.818;2023-05-10T11:39:28;5.82;;;0.68;;
50547;SDS011;38013;48.810;8.818;2023-05-10T11:41:57;3.00;;;0.50;;
50547;SDS011;38013;48.810;8.818;2023-05-10T11:44:31;2.15;;;0.65;;
50547;SDS011;38013;48.810;8.818;2023-05-10T11:47:00;1.55;;;0.60;;
50547;SDS011;38013;48.810;8.818;2023-05-10T11:49:27;2.58;;;0.75;;
50547;SDS011;38013;48.810;8.818;2023-05-10T11:52:04;3.50;;;0.55;;
50547;SDS011;38013;48.810;8.818;2023-05-10T11:57:02;4.13;;;0.50;;
50547;SDS011;38013;48.810;8.818;2023-05-10T11:59:29;3.50;;;0.50;;
50547;SDS011;38013;48.810;8.818;2023-05-10T12:01:56;3.03;;;0.52;;
50547;SDS011;38013;48.810;8.818;2023-05-10T12:04:23;1.98;;;0.52;;
50547;SDS011;38013;48.810;8.818;2023-05-10T12:06:50;1.75;;;0.60;;
50547;SDS011;38013;48.810;8.818;2023-05-10T12:09:17;3.42;;;0.60;;
50547;SDS011;38013;48.810;8.818;2023-05-10T12:12:01;2.92;;;0.60;;
50547;SDS011;38013;48.810;8.818;2023-05-10T12:14:28;2.22;;;0.60;;
50547;SDS011;38013;48.810;8.818;2023-05-10T12:17:00;2.10;;;0.60;;
50547;SDS011;38013;48.810;8.818;2023-05-10T12:19:27;1.40;;;0.50;;
50547;SDS011;38013;48.810;8.818;2023-05-10T12:21:54;3.33;;;0.80;;
50547;SDS011;38013;48.810;8.818;2023-05-10T12:24:21;2.90;;;0.70;;
50547;SDS011;38013;48.810;8.818;2023-05-10T12:26:48;3.03;;;1.30;;
50547;SDS011;38013;48.810;8.818;2023-05-10T12:29:15;4.60;;;0.88;;
50547;SDS011;38013;48.810;8.818;2023-05-10T12:31:54;2.42;;;0.63;;
50547;SDS011;38013;48.810;8.818;2023-05-10T12:34:32;2.05;;;0.60;;
50547;SDS011;38013;48.810;8.818;2023-05-10T12:37:02;3.25;;;0.70;;
50547;SDS011;38013;48.810;8.818;2023-05-10T12:39:42;1.98;;;0.55;;
50547;SDS011;38013;48.810;8.818;2023-05-10T12:42:10;1.77;;;0.50;;
50547;SDS011;38013;48.810;8.818;2023-05-10T12:44:38;3.50;;;0.40;;
50547;SDS011;38013;48.810;8.818;2023-05-10T12:47:05;2.35;;;0.93;;
50547;SDS011;38013;48.810;8.818;2023-05-10T12:49:32;2.10;;;0.40;;
50547;SDS011;38013;48.810;8.818;2023-05-10T12:51:59;3.30;;;0.60;;
50547;SDS011;38013;48.810;8.818;2023-05-10T12:54:26;1.92;;;0.60;;
50547;SDS011;38013;48.810;8.818;2023-05-10T12:56:54;5.43;;;0.63;;
50547;SDS011;38013;48.810;8.818;2023-05-10T12:59:21;2.22;;;0.47;;
50547;SDS011;38013;48.810;8.818;2023-05-10T13:01:48;1.92;;;0.60;;
50547;SDS011;38013;48.810;8.818;2023-05-10T13:04:15;2.00;;;0.65;;
50547;SDS011;38013;48.810;8.818;2023-05-10T13:06:42;2.63;;;0.60;;
50547;SDS011;38013;48.810;8.818;2023-05-10T13:09:09;3.20;;;0.65;;
50547;SDS011;38013;48.810;8.818;2023-05-10T13:11:36;4.32;;;0.57;;
50547;SDS011;38013;48.810;8.818;2023-05-10T13:14:03;3.40;;;0.43;;
50547;SDS011;38013;48.810;8.818;2023-05-10T13:16:30;2.13;;;0.60;;
50547;SDS011;38013;48.810;8.818;2023-05-10T13:18:57;2.70;;;0.50;;
50547;SDS011;38013;48.810;8.818;2023-05-10T13:21:24;4.60;;;0.45;;
50547;SDS011;38013;48.810;8.818;2023-05-10T13:23:51;3.55;;;0.95;;
50547;SDS011;38013;48.810;8.818;2023-05-10T13:26:19;2.15;;;0.55;;
50547;SDS011;38013;48.810;8.818;2023-05-10T13:28:46;1.85;;;0.40;;
50547;SDS011;38013;48.810;8.818;2023-05-10T13:31:13;1.05;;;0.38;;
50547;SDS011;38013;48.810;8.818;2023-05-10T13:33:40;5.43;;;0.40;;
50547;SDS011;38013;48.810;8.818;2023-05-10T13:36:06;2.63;;;0.60;;
50547;SDS011;38013;48.810;8.818;2023-05-10T13:38:33;1.95;;;0.55;;
50547;SDS011;38013;48.810;8.818;2023-05-10T13:41:00;3.72;;;0.40;;
50547;SDS011;38013;48.810;8.818;2023-05-10T13:43:28;1.85;;;0.55;;
50547;SDS011;38013;48.810;8.818;2023-05-10T13:45:55;1.60;;;0.47;;
50547;SDS011;38013;48.810;8.818;2023-05-10T13:48:22;2.28;;;0.50;;
50547;SDS011;38013;48.810;8.818;2023-05-10T13:50:49;1.15;;;0.43;;
50547;SDS011;38013;48.810;8.818;2023-05-10T13:53:16;9.75;;;1.05;;
50547;SDS011;38013;48.810;8.818;2023-05-10T13:55:42;2.05;;;0.40;;
50547;SDS011;38013;48.810;8.818;2023-05-10T13:58:09;1.30;;;0.43;;
50547;SDS011;38013;48.810;8.818;2023-05-10T14:00:36;1.35;;;0.50;;
50547;SDS011;38013;48.810;8.818;2023-05-10T14:03:03;1.13;;;0.50;;
50547;SDS011;38013;48.810;8.818;2023-05-10T14:05:31;1.02;;;0.40;;
50547;SDS011;38013;48.810;8.818;2023-05-10T14:07:58;3.28;;;0.60;;
50547;SDS011;38013;48.810;8.818;2023-05-10T14:10:25;2.50;;;0.60;;
50547;SDS011;38013;48.810;8.818;2023-05-10T14:12:52;2.30;;;0.52;;
50547;SDS011;38013;48.810;8.818;2023-05-10T14:15:19;1.05;;;0.40;;
50547;SDS011;38013;48.810;8.818;2023-05-10T14:17:46;3.97;;;0.50;;
50547;SDS011;38013;48.810;8.818;2023-05-10T14:20:12;0.60;;;0.30;;
50547;SDS011;38013;48.810;8.818;2023-05-10T14:22:39;1.17;;;0.43;;
50547;SDS011;38013;48.810;8.818;2023-05-10T14:25:07;3.72;;;0.50;;
50547;SDS011;38013;48.810;8.818;2023-05-10T14:27:34;1.35;;;0.40;;
50547;SDS011;38013;48.810;8.818;2023-05-10T14:30:01;0.55;;;0.28;;
50547;SDS011;38013;48.810;8.818;2023-05-10T14:32:28;2.67;;;0.50;;
50547;SDS011;38013;48.810;8.818;2023-05-10T14:34:55;1.77;;;0.40;;
50547;SDS011;38013;48.810;8.818;2023-05-10T14:37:22;1.00;;;0.40;;
50547;SDS011;38013;48.810;8.818;2023-05-10T14:39:49;1.23;;;0.30;;
50547;SDS011;38013;48.810;8.818;2023-05-10T14:42:15;0.98;;;0.30;;
50547;SDS011;38013;48.810;8.818;2023-05-10T14:44:42;2.97;;;0.50;;
50547;SDS011;38013;48.810;8.818;2023-05-10T14:47:09;0.32;;;0.30;;
50547;SDS011;38013;48.810;8.818;2023-05-10T14:49:37;0.35;;;0.30;;
50547;SDS011;38013;48.810;8.818;2023-05-10T14:52:04;1.85;;;0.20;;
50547;SDS011;38013;48.810;8.818;2023-05-10T14:54:31;1.33;;;0.30;;
50547;SDS011;38013;48.810;8.818;2023-05-10T14:56:59;1.17;;;0.40;;
50547;SDS011;38013;48.810;8.818;2023-05-10T14:59:26;1.10;;;0.40;;
50547;SDS011;38013;48.810;8.818;2023-05-10T15:01:53;2.08;;;0.38;;
50547;SDS011;38013;48.810;8.818;2023-05-10T15:04:21;4.30;;;0.43;;
50547;SDS011;38013;48.810;8.818;2023-05-10T15:06:49;0.60;;;0.30;;
50547;SDS011;38013;48.810;8.818;2023-05-10T15:09:16;0.65;;;0.30;;
50547;SDS011;38013;48.810;8.818;2023-05-10T15:11:43;1.33;;;0.38;;
50547;SDS011;38013;48.810;8.818;2023-05-10T15:14:10;2.67;;;0.57;;
50547;SDS011;38013;48.810;8.818;2023-05-10T15:16:37;0.95;;;0.32;;
50547;SDS011;38013;48.810;8.818;2023-05-10T15:19:04;0.65;;;0.20;;
50547;SDS011;38013;48.810;8.818;2023-05-10T15:21:31;1.85;;;0.30;;
50547;SDS011;38013;48.810;8.818;2023-05-10T15:24:05;1.15;;;0.30;;
50547;SDS011;38013;48.810;8.818;2023-05-10T15:26:32;2.00;;;0.88;;
50547;SDS011;38013;48.810;8.818;2023-05-10T15:28:59;2.35;;;0.73;;
50547;SDS011;38013;48.810;8.818;2023-05-10T15:31:26;4.03;;;1.05;;
50547;SDS011;38013;48.810;8.818;2023-05-10T15:33:57;2.95;;;0.50;;
50547;SDS011;38013;48.810;8.818;2023-05-10T15:36:27;4.57;;;0.50;;